Time;durP1;ratioP1;P1;durP2;ratioP2;P2;SDS_P1;SDS_P2;PMS_P1;PMS_P2;Temp;Humidity;BMP_temperature;BMP_pressure;BME280_temperature;BME280_humidity;BME280_pressure;Samples;Min_cycle;Max_cycle;Signal;HPM_P1;HPM_P2
2023/05/10 00:01:13;;;;;;;4.40;2.25;;;;;;;2.66;100.00;100504.84;4890759;28;20867;-58
2023/05/10 00:03:43;;;;;;;6.78;2.58;;;;;;;2.75;100.00;100505.03;4887221;28;20044;-58
2023/05/10 00:06:14;;;;;;;3.65;2.25;;;;;;;2.91;100.00;100482.97;4888096;28;20055;-58
2023/05/10 00:08:46;;;;;;;3.60;2.22;;;;;;;3.16;100.00;100502.34;4887608;28;20551;-58
2023/05/10 00:11:17;;;;;;;4.05;2.22;;;;;;;3.10;100.00;100507.41;4882166;28;20289;-58
2023/05/10 00:13:50;;;;;;;4.05;2.38;;;;;;;2.95;100.00;100503.69;4887978;28;20068;-58
2023/05/10 00:16:20;;;;;;;2.33;1.70;;;;;;;2.90;100.00;100500.16;4887229;28;20045;-58
2023/05/10 00:18:51;;;;;;;3.08;1.98;;;;;;;2.92;100.00;100498.50;4888249;28;20383;-58
2023/05/10 00:21:21;;;;;;;2.78;1.70;;;;;;;2.89;98.80;100502.69;4886781;28;21819;-58
2023/05/10 00:23:53;;;;;;;2.85;1.60;;;;;;;2.95;98.28;100508.84;4881705;28;20061;-59
2023/05/10 00:26:23;;;;;;;2.72;1.40;;;;;;;2.98;98.18;100514.06;4883754;28;20048;-58
2023/05/10 00:28:54;;;;;;;4.78;1.80;;;;;;;3.00;100.00;100509.81;4883504;28;20427;-57
2023/05/10 00:31:24;;;;;;;2.67;1.20;;;;;;;2.99;98.75;100510.63;4884382;28;20084;-57
2023/05/10 00:33:58;;;;;;;2.42;1.30;;;;;;;3.03;98.51;100506.41;4888449;28;20402;-57
2023/05/10 00:36:29;;;;;;;1.60;1.23;;;;;;;3.15;99.04;100513.53;4876529;28;20048;-58
2023/05/10 00:39:01;;;;;;;3.30;1.02;;;;;;;3.13;96.71;100504.88;4880773;28;20068;-58
2023/05/10 00:41:32;;;;;;;1.67;1.10;;;;;;;3.16;97.08;100518.69;4885644;28;21084;-58
2023/05/10 00:44:03;;;;;;;1.80;1.00;;;;;;;3.10;94.87;100517.72;4889262;28;20077;-59
2023/05/10 00:46:33;;;;;;;1.63;0.98;;;;;;;3.07;94.10;100517.66;4887078;28;20061;-58
2023/05/10 00:49:04;;;;;;;1.58;1.00;;;;;;;2.82;95.01;100491.38;4887032;28;20596;-57
2023/05/10 00:51:36;;;;;;;2.60;1.05;;;;;;;3.12;92.83;100531.50;4887325;28;20048;-58
2023/05/10 00:54:08;;;;;;;3.05;1.00;;;;;;;3.16;91.50;100523.00;4880901;28;20467;-58
2023/05/10 00:56:39;;;;;;;2.28;1.23;;;;;;;3.23;91.98;100536.03;4880205;28;20053;-58
2023/05/10 00:59:10;;;;;;;1.73;1.10;;;;;;;3.26;91.70;100540.38;4886897;28;20432;-58
2023/05/10 01:01:40;;;;;;;1.40;1.10;;;;;;;3.28;91.95;100537.84;4886153;28;20053;-57
2023/05/10 01:04:12;;;;;;;2.63;1.50;;;;;;;3.23;91.61;100540.34;4881713;28;20107;-58
2023/05/10 01:06:43;;;;;;;1.95;1.48;;;;;;;3.31;93.01;100537.88;4879409;28;20062;-57
2023/05/10 01:09:15;;;;;;;2.75;1.27;;;;;;;3.35;91.31;100535.41;4897537;28;20049;-59
2023/05/10 01:11:46;;;;;;;2.15;1.35;;;;;;;3.40;92.44;100538.94;4886218;28;20064;-58
2023/05/10 01:14:19;;;;;;;2.00;1.40;;;;;;;3.20;90.96;100529.97;4886572;28;20061;-58
2023/05/10 01:16:51;;;;;;;1.75;1.20;;;;;;;3.17;92.03;100540.22;4886611;28;20061;-58
2023/05/10 01:19:25;;;;;;;2.95;1.30;;;;;;;2.83;91.27;100467.34;4880047;28;20124;-58
2023/05/10 01:22:04;;;;;;;2.80;0.93;;;;;;;3.16;89.95;100528.16;4886331;28;20053;-57
2023/05/10 01:25:07;;;;;;;2.22;1.30;;;;;;;3.34;89.81;100549.13;4875236;28;20052;-58
2023/05/10 01:28:08;;;;;;;1.90;1.55;;;;;;;3.52;91.26;100545.13;4874845;28;20059;-58
2023/05/10 01:31:09;;;;;;;1.35;1.15;;;;;;;3.43;88.53;100544.13;4874829;28;20049;-57
2023/05/10 01:33:48;;;;;;;3.55;1.58;;;;;;;3.62;91.03;100549.59;4879869;28;20052;-58
2023/05/10 01:36:26;;;;;;;3.50;1.67;;;;;;;3.83;90.17;100549.94;4879385;28;20063;-58
2023/05/10 01:39:04;;;;;;;1.90;1.30;;;;;;;3.77;87.68;100556.72;4878471;28;20072;-58
2023/05/10 01:41:46;;;;;;;1.85;1.20;;;;;;;3.79;88.30;100540.41;4879452;28;20052;-57
2023/05/10 01:44:25;;;;;;;2.25;1.17;;;;;;;3.74;86.59;100533.44;4873500;28;21297;-58
2023/05/10 01:47:03;;;;;;;2.38;1.55;;;;;;;3.81;87.28;100545.59;4879375;28;20617;-58
2023/05/10 01:49:42;;;;;;;1.90;1.20;;;;;;;3.97;87.92;100541.53;4879896;28;20381;-58
2023/05/10 01:52:17;;;;;;;1.75;1.33;;;;;;;3.34;87.69;100445.81;4882471;28;20054;-58
2023/05/10 01:54:55;;;;;;;3.00;1.42;;;;;;;3.78;86.34;100541.25;4880539;28;20554;-58
2023/05/10 01:57:29;;;;;;;2.70;1.38;;;;;;;3.54;87.09;100520.19;4875372;28;20044;-58
2023/05/10 02:00:01;;;;;;;4.13;1.80;;;;;;;3.36;87.30;100550.03;4889116;28;20435;-58
2023/05/10 02:02:34;;;;;;;1.98;1.40;;;;;;;3.27;87.30;100542.16;4885377;28;20058;-57
2023/05/10 02:05:08;;;;;;;3.75;1.60;;;;;;;3.03;89.53;100485.75;4889393;28;20049;-58
2023/05/10 02:07:39;;;;;;;3.08;1.63;;;;;;;3.44;89.30;100540.72;4882366;28;20088;-58
2023/05/10 02:10:12;;;;;;;5.07;1.30;;;;;;;3.41;87.30;100529.44;4872233;28;20091;-58
2023/05/10 02:12:45;;;;;;;2.55;1.52;;;;;;;3.34;88.24;100549.13;4882328;28;20123;-57
2023/05/10 02:15:20;;;;;;;3.30;1.70;;;;;;;3.18;88.99;100536.81;4889609;28;20116;-58
2023/05/10 02:17:51;;;;;;;3.42;1.80;;;;;;;3.25;88.56;100554.16;4890351;28;20483;-58
2023/05/10 02:20:25;;;;;;;5.47;2.20;;;;;;;3.35;90.12;100550.03;4884596;28;20058;-58
2023/05/10 02:22:58;;;;;;;3.83;2.17;;;;;;;3.12;88.82;100519.50;4889096;28;20049;-58
2023/05/10 02:25:30;;;;;;;4.40;2.35;;;;;;;3.20;89.76;100550.63;4885079;28;20053;-58
2023/05/10 02:28:04;;;;;;;5.90;3.08;;;;;;;3.08;89.82;100534.91;4881838;28;20048;-58
2023/05/10 02:30:36;;;;;;;4.50;2.85;;;;;;;2.91;90.45;100538.03;4878553;28;20132;-58
2023/05/10 02:33:08;;;;;;;6.80;3.00;;;;;;;2.91;90.91;100532.00;4889090;28;20053;-58
2023/05/10 02:35:41;;;;;;;9.32;3.72;;;;;;;3.10;92.49;100548.72;4879829;28;20072;-58
2023/05/10 02:38:13;;;;;;;8.70;3.75;;;;;;;3.02;92.35;100552.03;4879628;28;20057;-58
2023/05/10 02:40:44;;;;;;;12.13;4.55;;;;;;;3.02;92.16;100541.69;4887650;28;20386;-59
2023/05/10 02:43:17;;;;;;;6.10;3.20;;;;;;;2.45;92.68;100500.16;4889993;28;20498;-59
2023/05/10 02:45:50;;;;;;;10.05;3.90;;;;;;;2.66;93.65;100561.63;4888443;28;20067;-58
2023/05/10 02:48:21;;;;;;;7.00;3.38;;;;;;;2.46;94.50;100568.94;4882075;28;20144;-58
2023/05/10 02:50:56;;;;;;;5.13;3.13;;;;;;;2.51;94.31;100560.44;4886381;28;20065;-59
2023/05/10 02:53:33;;;;;;;6.60;3.75;;;;;;;2.31;93.91;100517.91;4883336;28;20057;-58
2023/05/10 02:56:09;;;;;;;7.07;4.15;;;;;;;2.54;94.05;100552.78;4869777;28;20057;-57
2023/05/10 02:58:40;;;;;;;7.72;4.28;;;;;;;2.57;93.82;100527.06;4878259;28;20071;-58
2023/05/10 03:01:11;;;;;;;8.90;4.53;;;;;;;2.65;94.20;100567.63;4878214;28;20422;-58
2023/05/10 03:03:41;;;;;;;7.70;4.22;;;;;;;2.63;94.69;100554.69;4878271;28;20071;-57
2023/05/10 03:06:13;;;;;;;11.00;4.25;;;;;;;2.68;94.19;100559.94;4884044;28;20054;-58
2023/05/10 03:08:45;;;;;;;10.20;3.75;;;;;;;2.61;93.09;100552.91;4877854;28;20065;-58
2023/05/10 03:11:34;;;;;;;7.22;3.38;;;;;;;2.54;92.72;100547.59;4878941;28;20060;-58
2023/05/10 03:14:18;;;;;;;7.70;3.10;;;;;;;2.53;93.54;100563.94;4867616;28;20049;-58
2023/05/10 03:16:58;;;;;;;9.02;4.30;;;;;;;2.59;94.03;100556.31;4868709;28;20661;-58
2023/05/10 03:19:41;;;;;;;6.57;3.85;;;;;;;2.72;93.99;100564.31;4868458;28;20049;-58
2023/05/10 03:22:26;;;;;;;10.75;5.13;;;;;;;2.74;93.70;100566.06;4866369;28;20106;-58
2023/05/10 03:24:59;;;;;;;10.88;4.80;;;;;;;2.77;92.10;100554.94;4867839;28;20057;-58
2023/05/10 03:27:32;;;;;;;9.18;4.00;;;;;;;2.93;93.16;100562.16;4878408;28;20063;-58
2023/05/10 03:30:06;;;;;;;9.68;4.55;;;;;;;2.49;92.05;100497.63;4867843;28;20158;-58
2023/05/10 03:32:37;;;;;;;7.68;4.07;;;;;;;2.95;90.74;100560.50;4877516;28;20081;-58
2023/05/10 03:35:10;;;;;;;5.88;3.78;;;;;;;2.99;92.54;100561.41;4878198;28;20467;-58
2023/05/10 03:37:42;;;;;;;6.30;3.70;;;;;;;3.07;91.76;100558.97;4877859;28;20045;-58
2023/05/10 03:40:15;;;;;;;7.72;4.15;;;;;;;3.01;90.30;100565.75;4868625;28;20200;-59
2023/05/10 03:42:47;;;;;;;7.28;3.95;;;;;;;3.01;91.27;100558.00;4879027;28;20049;-58
2023/05/10 03:45:18;;;;;;;4.88;2.85;;;;;;;3.10;89.75;100543.56;4877254;28;20049;-58
2023/05/10 03:47:49;;;;;;;6.18;3.20;;;;;;;2.99;89.36;100561.41;4876308;28;20121;-58
2023/05/10 03:50:27;;;;;;;10.40;3.30;;;;;;;2.87;89.20;100556.91;4878317;28;20652;-58
2023/05/10 03:53:09;;;;;;;9.65;4.00;;;;;;;2.81;91.07;100562.78;4865537;28;20055;-58
2023/05/10 03:55:44;;;;;;;7.47;3.75;;;;;;;2.87;91.49;100554.31;4867436;28;20786;-58
2023/05/10 03:58:15;;;;;;;6.68;3.50;;;;;;;2.95;90.97;100555.31;4877889;28;20069;-58
2023/05/10 04:00:46;;;;;;;8.02;3.83;;;;;;;2.84;91.44;100567.13;4878780;28;20403;-58
2023/05/10 04:03:17;;;;;;;5.90;3.35;;;;;;;2.77;90.61;100562.69;4876830;28;20134;-58
2023/05/10 04:05:48;;;;;;;4.88;2.60;;;;;;;2.79;90.59;100561.88;4877022;28;20052;-58
2023/05/10 04:08:20;;;;;;;5.68;3.35;;;;;;;2.92;91.31;100550.13;4878409;28;20056;-58
2023/05/10 04:10:50;;;;;;;6.55;3.60;;;;;;;3.10;91.55;100561.63;4877226;28;20044;-58
2023/05/10 04:13:21;;;;;;;7.10;3.30;;;;;;;2.96;90.30;100562.22;4876936;28;20056;-58
2023/05/10 04:15:51;;;;;;;5.22;2.72;;;;;;;2.97;90.91;100569.13;4877700;28;20063;-57
2023/05/10 04:18:22;;;;;;;4.07;2.92;;;;;;;2.84;90.21;100528.41;4884966;28;20058;-58
2023/05/10 04:20:52;;;;;;;5.00;3.00;;;;;;;2.72;89.68;100562.63;4881402;28;20054;-58
2023/05/10 04:23:25;;;;;;;7.43;3.30;;;;;;;2.83;89.45;100551.63;4876301;28;20201;-57
2023/05/10 04:26:00;;;;;;;5.75;3.17;;;;;;;2.77;89.64;100534.31;4877974;28;20738;-58
2023/05/10 04:28:31;;;;;;;5.28;2.85;;;;;;;2.71;90.70;100560.00;4876676;28;20438;-58
2023/05/10 04:31:05;;;;;;;6.18;3.03;;;;;;;2.86;89.34;100568.03;4884508;28;20437;-58
2023/05/10 04:33:36;;;;;;;5.45;2.72;;;;;;;2.59;89.87;100566.63;4877549;28;20960;-58
2023/05/10 04:36:07;;;;;;;6.50;3.17;;;;;;;2.63;91.22;100582.19;4877631;28;20532;-58
2023/05/10 04:38:39;;;;;;;7.80;3.53;;;;;;;2.76;91.46;100579.88;4875404;28;20169;-58
2023/05/10 04:41:11;;;;;;;4.25;3.28;;;;;;;2.70;89.95;100547.94;4877136;28;20076;-60
2023/05/10 04:43:41;;;;;;;7.35;3.33;;;;;;;2.35;91.29;100499.94;4876621;28;20089;-58
2023/05/10 04:46:12;;;;;;;9.75;3.90;;;;;;;2.52;90.94;100559.63;4883775;28;20459;-58
2023/05/10 04:48:42;;;;;;;4.28;2.30;;;;;;;2.66;90.51;100583.13;4881009;28;22188;-58
2023/05/10 04:51:13;;;;;;;3.03;2.22;;;;;;;2.58;90.43;100579.53;4879806;28;20437;-57
2023/05/10 04:53:45;;;;;;;5.63;2.70;;;;;;;2.45;90.50;100583.56;4881221;28;21108;-58
2023/05/10 04:56:32;;;;;;;;;;;;;;;2.48;91.52;100583.59;4876707;28;21290;-58
2023/05/10 04:59:03;;;;;;;6.28;2.47;;;;;;;2.31;91.36;100569.47;4887768;28;19986;-58
2023/05/10 05:01:33;;;;;;;5.38;2.83;;;;;;;2.33;92.31;100588.44;4886390;28;20139;-58
2023/05/10 05:04:04;;;;;;;5.95;3.30;;;;;;;2.42;92.36;100578.34;4885405;28;20152;-58
2023/05/10 05:06:35;;;;;;;5.35;3.42;;;;;;;2.34;92.35;100590.16;4885656;28;20053;-58
2023/05/10 05:09:07;;;;;;;5.20;3.10;;;;;;;2.28;92.47;100592.63;4885165;28;20041;-58
2023/05/10 05:11:38;;;;;;;7.70;4.43;;;;;;;2.22;92.33;100595.03;4883340;28;20060;-58
2023/05/10 05:14:08;;;;;;;5.80;3.33;;;;;;;2.13;92.18;100596.59;4882981;28;20057;-58
2023/05/10 05:16:39;;;;;;;5.93;3.83;;;;;;;2.20;93.49;100591.56;4886502;28;20060;-58
2023/05/10 05:19:09;;;;;;;5.22;3.22;;;;;;;2.19;92.55;100589.81;4885333;28;20053;-58
2023/05/10 05:21:40;;;;;;;6.00;2.88;;;;;;;2.20;92.28;100586.41;4870885;28;20068;-58
2023/05/10 05:24:12;;;;;;;5.00;2.83;;;;;;;2.11;92.63;100598.25;4879087;28;20110;-58
2023/05/10 05:26:43;;;;;;;4.85;2.95;;;;;;;2.09;92.52;100599.91;4872856;28;20112;-58
2023/05/10 05:29:13;;;;;;;5.10;2.58;;;;;;;1.87;92.87;100582.19;4882767;28;20060;-58
2023/05/10 05:31:44;;;;;;;5.20;3.20;;;;;;;1.98;93.74;100598.81;4885794;28;20531;-60
2023/05/10 05:34:15;;;;;;;5.95;3.35;;;;;;;2.08;94.25;100608.50;4885206;28;20056;-60
2023/05/10 05:36:45;;;;;;;8.48;3.78;;;;;;;2.14;93.99;100608.63;4895380;28;20041;-57
2023/05/10 05:39:17;;;;;;;4.53;2.80;;;;;;;2.01;93.64;100585.97;4887523;28;20045;-57
2023/05/10 05:41:48;;;;;;;6.97;3.25;;;;;;;2.19;93.29;100625.91;4884955;28;20560;-57
2023/05/10 05:44:18;;;;;;;6.70;2.78;;;;;;;2.12;92.94;100610.31;4884622;28;20048;-57
2023/05/10 05:46:49;;;;;;;5.60;3.33;;;;;;;2.09;93.85;100614.50;4876798;28;20364;-57
2023/05/10 05:49:19;;;;;;;5.60;2.75;;;;;;;1.75;93.59;100561.28;4875669;28;20707;-58
2023/05/10 05:51:50;;;;;;;7.47;3.42;;;;;;;2.10;94.52;100617.16;4883615;28;20057;-57
2023/05/10 05:54:22;;;;;;;6.57;2.85;;;;;;;2.03;93.57;100620.41;4888124;28;20056;-57
2023/05/10 05:56:55;;;;;;;6.03;3.00;;;;;;;2.01;94.02;100626.34;4869813;28;20051;-57
2023/05/10 05:59:28;;;;;;;6.60;4.15;;;;;;;1.90;94.13;100621.81;4875046;28;20049;-57
2023/05/10 06:01:59;;;;;;;7.25;3.10;;;;;;;1.89;95.41;100637.22;4875387;28;20111;-57
2023/05/10 06:04:31;;;;;;;7.45;3.30;;;;;;;1.83;95.47;100631.94;4885885;28;20148;-57
2023/05/10 06:07:02;;;;;;;5.25;2.97;;;;;;;1.90;95.48;100639.00;4874401;28;20441;-58
2023/05/10 06:09:34;;;;;;;7.28;2.90;;;;;;;1.92;96.42;100632.16;4876106;28;22310;-58
2023/05/10 06:12:04;;;;;;;5.57;2.92;;;;;;;1.94;96.01;100640.78;4887441;28;20053;-57
2023/05/10 06:14:35;;;;;;;12.43;4.50;;;;;;;1.98;95.50;100647.78;4877571;28;20046;-57
2023/05/10 06:17:06;;;;;;;14.35;4.88;;;;;;;1.98;96.08;100649.50;4917013;28;20617;-58
2023/05/10 06:19:37;;;;;;;17.42;6.55;;;;;;;1.99;96.91;100649.50;4874785;28;20094;-57
2023/05/10 06:22:07;;;;;;;5.55;2.88;;;;;;;1.88;96.18;100656.13;4865225;28;20052;-57
2023/05/10 06:24:39;;;;;;;6.82;3.45;;;;;;;1.79;96.86;100648.13;4880130;28;20128;-57
2023/05/10 06:27:10;;;;;;;4.00;2.67;;;;;;;1.70;97.56;100647.09;4877463;28;20053;-57
2023/05/10 06:29:41;;;;;;;5.35;2.50;;;;;;;1.73;96.86;100661.75;4890289;28;20120;-58
2023/05/10 06:32:12;;;;;;;4.75;2.83;;;;;;;1.71;97.90;100653.97;4876130;28;20050;-58
2023/05/10 06:34:43;;;;;;;6.95;2.80;;;;;;;1.72;97.77;100655.72;4883371;28;20050;-57
2023/05/10 06:37:14;;;;;;;3.60;2.45;;;;;;;1.73;98.23;100669.47;4879545;28;20123;-58
2023/05/10 06:39:47;;;;;;;5.07;2.80;;;;;;;1.71;97.89;100659.13;4881025;28;20054;-57
2023/05/10 06:42:32;;;;;;;6.30;3.13;;;;;;;1.66;98.72;100668.44;4896662;28;20464;-57
2023/05/10 06:45:03;;;;;;;6.70;3.10;;;;;;;1.68;98.68;100674.50;4873638;28;20058;-56
2023/05/10 06:47:35;;;;;;;4.35;2.30;;;;;;;1.62;98.43;100679.50;4904238;28;20076;-57
2023/05/10 06:50:12;;;;;;;6.05;3.25;;;;;;;1.61;98.78;100677.75;4880640;28;20048;-57
2023/05/10 06:52:45;;;;;;;7.70;3.20;;;;;;;1.61;99.48;100677.75;4869505;28;20144;-57
2023/05/10 06:55:18;;;;;;;4.40;3.20;;;;;;;1.49;99.41;100669.69;4879191;28;20837;-57
2023/05/10 06:57:51;;;;;;;5.32;2.50;;;;;;;1.52;98.83;100682.66;4884774;28;20392;-57
2023/05/10 07:00:23;;;;;;;3.55;2.30;;;;;;;1.40;99.53;100697.75;4882535;28;20046;-58
2023/05/10 07:02:56;;;;;;;4.93;2.70;;;;;;;1.36;99.76;100690.78;4869074;28;20499;-57
2023/05/10 07:05:29;;;;;;;5.40;2.38;;;;;;;1.31;100.00;100684.66;4881836;28;20328;-57
2023/05/10 07:08:01;;;;;;;3.40;2.53;;;;;;;1.16;100.00;100667.94;4885859;28;20136;-57
2023/05/10 07:10:35;;;;;;;3.67;2.30;;;;;;;1.31;100.00;100697.53;4885987;28;20076;-57
2023/05/10 07:13:07;;;;;;;5.00;2.50;;;;;;;1.26;100.00;100705.97;4869268;28;20353;-57
2023/05/10 07:15:46;;;;;;;4.97;2.50;;;;;;;1.12;100.00;100676.38;4884457;28;20045;-60
2023/05/10 07:18:18;;;;;;;3.78;2.40;;;;;;;1.29;100.00;100711.19;4875187;28;20076;-57
2023/05/10 07:20:50;;;;;;;2.92;2.03;;;;;;;1.24;100.00;100702.47;4883767;28;20049;-57
2023/05/10 07:23:21;;;;;;;4.20;2.58;;;;;;;1.20;100.00;100690.38;4892357;28;20044;-57
2023/05/10 07:25:55;;;;;;;5.97;2.63;;;;;;;1.35;100.00;100709.63;4873530;28;20065;-57
2023/05/10 07:28:29;;;;;;;5.00;2.60;;;;;;;1.35;100.00;100709.63;4880452;28;20050;-57
2023/05/10 07:31:01;;;;;;;3.10;2.30;;;;;;;1.15;100.00;100676.50;4884318;28;20049;-57
2023/05/10 07:33:32;;;;;;;4.53;2.40;;;;;;;1.28;100.00;100714.63;4882620;28;20115;-58
2023/05/10 07:36:05;;;;;;;3.55;2.55;;;;;;;0.94;100.00;100661.31;4888496;28;20108;-58
2023/05/10 07:38:40;;;;;;;5.50;2.40;;;;;;;1.25;100.00;100709.41;4865621;28;20053;-58
2023/05/10 07:41:18;;;;;;;5.63;1.90;;;;;;;1.23;100.00;100711.03;4894118;28;20049;-58
2023/05/10 07:44:09;;;;;;;5.40;2.05;;;;;;;0.83;100.00;100666.16;4857355;28;20646;-58
2023/05/10 07:46:41;;;;;;;4.43;2.83;;;;;;;1.12;100.00;100727.00;4888062;28;20056;-58
2023/05/10 07:49:13;;;;;;;4.35;2.17;;;;;;;1.08;100.00;100715.75;4880465;28;20089;-58
2023/05/10 07:51:44;;;;;;;2.42;1.73;;;;;;;1.10;100.00;100728.66;4886347;28;20060;-58
2023/05/10 07:54:17;;;;;;;4.22;2.10;;;;;;;1.09;100.00;100714.91;4876253;28;20049;-58
2023/05/10 07:56:50;;;;;;;3.45;1.90;;;;;;;0.80;100.00;100678.91;4879765;28;20050;-58
2023/05/10 07:59:22;;;;;;;4.13;2.28;;;;;;;1.09;100.00;100727.78;4874401;28;20043;-58
2023/05/10 08:01:54;;;;;;;7.43;2.28;;;;;;;0.84;100.00;100716.75;4864243;28;20101;-58
2023/05/10 08:04:25;;;;;;;4.30;2.40;;;;;;;1.02;100.00;100725.84;4876790;28;20168;-58
2023/05/10 08:06:57;;;;;;;7.10;3.17;;;;;;;0.99;100.00;100725.78;4878822;28;20045;-58
2023/05/10 08:09:29;;;;;;;4.75;2.53;;;;;;;0.97;100.00;100717.13;4861709;28;20137;-58
2023/05/10 08:12:02;;;;;;;2.85;1.88;;;;;;;0.97;100.00;100727.41;4876584;28;20053;-58
2023/05/10 08:14:33;;;;;;;4.38;2.13;;;;;;;0.92;100.00;100728.97;4867141;28;20054;-58
2023/05/10 08:17:05;;;;;;;4.00;2.20;;;;;;;0.90;100.00;100743.50;4873731;28;20054;-58
2023/05/10 08:19:36;;;;;;;5.38;2.58;;;;;;;0.83;100.00;100724.44;4875929;28;20492;-58
2023/05/10 08:22:08;;;;;;;6.28;2.65;;;;;;;0.80;100.00;100730.38;4847600;28;20344;-58
2023/05/10 08:24:41;;;;;;;6.72;3.10;;;;;;;0.74;100.00;100735.31;4864082;28;20068;-58
2023/05/10 08:27:14;;;;;;;8.25;3.30;;;;;;;0.71;100.00;100727.50;4863420;28;20168;-58
2023/05/10 08:29:46;;;;;;;6.13;3.13;;;;;;;0.77;100.00;100740.53;4875066;28;20053;-58
2023/05/10 08:32:19;;;;;;;7.30;3.42;;;;;;;0.70;100.00;100733.50;4875099;28;20511;-58
2023/05/10 08:34:51;;;;;;;7.45;3.08;;;;;;;0.69;100.00;100736.88;4871528;28;20057;-58
2023/05/10 08:37:22;;;;;;;6.47;3.45;;;;;;;0.71;100.00;100742.94;4865792;28;20051;-58
2023/05/10 08:39:54;;;;;;;6.55;3.70;;;;;;;0.69;100.00;100741.16;4874318;28;20037;-58
2023/05/10 08:42:30;;;;;;;9.10;3.58;;;;;;;0.28;100.00;100677.31;4861618;28;20112;-58
2023/05/10 08:45:03;;;;;;;6.93;3.20;;;;;;;0.65;100.00;100742.75;4873945;28;20066;-58
2023/05/10 08:47:35;;;;;;;6.50;3.40;;;;;;;0.62;100.00;100755.50;4875494;28;20050;-58
2023/05/10 08:50:08;;;;;;;5.00;3.25;;;;;;;0.62;100.00;100760.63;4873764;28;20069;-58
2023/05/10 08:52:42;;;;;;;6.80;3.80;;;;;;;0.62;100.00;100755.50;4847593;28;20057;-58
2023/05/10 08:55:13;;;;;;;7.55;3.78;;;;;;;0.59;100.00;100750.25;4880510;28;20055;-57
2023/05/10 08:57:47;;;;;;;9.18;3.55;;;;;;;0.62;100.00;100760.63;4853654;28;20049;-57
2023/05/10 09:00:20;;;;;;;7.40;4.05;;;;;;;0.57;100.00;100751.91;4873240;28;20550;-56
2023/05/10 09:03:06;;;;;;;6.75;3.95;;;;;;;0.57;100.00;100751.91;4845297;28;20164;-58
2023/05/10 09:05:39;;;;;;;9.00;4.68;;;;;;;0.59;100.00;100760.56;4864291;28;20064;-58
2023/05/10 09:08:11;;;;;;;8.68;4.63;;;;;;;0.37;100.00;100718.72;4864072;28;20077;-58
2023/05/10 09:10:46;;;;;;;9.57;4.60;;;;;;;0.56;100.00;100763.03;4859030;28;20098;-57
2023/05/10 09:13:21;;;;;;;8.07;4.22;;;;;;;0.55;100.00;100754.44;4864022;28;20057;-58
2023/05/10 09:15:53;;;;;;;5.40;3.15;;;;;;;0.51;100.00;100756.88;4862122;28;20231;-58
2023/05/10 09:18:25;;;;;;;7.65;4.43;;;;;;;0.53;100.00;100755.22;4863430;28;20130;-57
2023/05/10 09:20:57;;;;;;;8.32;4.30;;;;;;;0.52;100.00;100758.59;4863763;28;20060;-58
2023/05/10 09:23:32;;;;;;;9.13;4.38;;;;;;;0.54;100.00;100772.38;4864264;28;20136;-58
2023/05/10 09:26:06;;;;;;;6.32;3.83;;;;;;;0.51;100.00;100768.03;4856645;28;20093;-58
2023/05/10 09:28:54;;;;;;;6.60;3.67;;;;;;;0.48;100.00;100777.34;4864108;28;20049;-58
2023/05/10 09:31:26;;;;;;;6.82;4.03;;;;;;;0.45;100.00;100764.38;4854191;28;20099;-58
2023/05/10 09:34:01;;;;;;;7.38;4.15;;;;;;;0.36;100.00;100750.41;4864388;28;20107;-58
2023/05/10 09:36:36;;;;;;;8.07;4.18;;;;;;;0.49;100.00;100776.50;4853327;28;20081;-58
2023/05/10 09:39:07;;;;;;;7.60;3.88;;;;;;;0.47;100.00;100778.16;4862264;28;20520;-58
2023/05/10 09:41:38;;;;;;;7.45;4.47;;;;;;;-0.32;100.00;100649.66;4863994;28;20053;-58
2023/05/10 09:44:12;;;;;;;8.23;4.22;;;;;;;0.42;100.00;100778.91;4863668;28;20076;-58
2023/05/10 09:46:44;;;;;;;9.32;5.40;;;;;;;0.40;100.00;100774.50;4856499;28;20055;-59
2023/05/10 09:49:17;;;;;;;9.27;5.25;;;;;;;0.38;100.00;100787.31;4862906;28;20056;-58
2023/05/10 09:51:49;;;;;;;9.18;5.10;;;;;;;0.37;100.00;100780.41;4863822;28;20053;-58
2023/05/10 09:54:20;;;;;;;11.10;5.43;;;;;;;0.29;100.00;100776.72;4878618;28;20057;-58
2023/05/10 09:56:52;;;;;;;9.15;5.20;;;;;;;0.25;100.00;100781.69;4886283;28;20101;-57
2023/05/10 09:59:28;;;;;;;11.13;5.55;;;;;;;0.23;100.00;100786.81;4891789;28;20441;-58
2023/05/10 10:02:00;;;;;;;10.38;4.85;;;;;;;0.22;100.00;100790.19;4889433;28;20295;-58
2023/05/10 10:04:31;;;;;;;12.32;5.75;;;;;;;0.23;100.00;100780.81;4890252;28;20495;-58
2023/05/10 10:07:05;;;;;;;8.65;5.18;;;;;;;0.15;100.00;100777.94;4883518;28;20050;-58
2023/05/10 10:09:37;;;;;;;10.93;5.15;;;;;;;0.11;100.00;100781.25;4889201;28;20051;-58
2023/05/10 10:12:09;;;;;;;10.07;5.57;;;;;;;0.21;100.00;100798.72;4889535;28;20053;-58
2023/05/10 10:14:43;;;;;;;10.18;5.55;;;;;;;0.11;100.00;100786.41;4888507;28;20061;-58
2023/05/10 10:17:14;;;;;;;9.50;5.13;;;;;;;0.21;100.00;100814.16;4879965;28;20499;-58
2023/05/10 10:19:47;;;;;;;9.13;5.57;;;;;;;0.21;100.00;100814.16;4888353;28;20122;-58
2023/05/10 10:22:19;;;;;;;11.68;5.55;;;;;;;0.06;100.00;100787.94;4880933;28;20126;-58
2023/05/10 10:24:52;;;;;;;13.00;6.05;;;;;;;0.01;100.00;100780.06;4887390;28;20703;-58
2023/05/10 10:27:28;;;;;;;11.65;5.93;;;;;;;0.26;100.00;100817.75;4877693;28;20043;-59
2023/05/10 10:30:15;;;;;;;11.95;6.55;;;;;;;0.24;100.00;100810.81;4886418;28;20068;-58
2023/05/10 10:33:15;;;;;;;10.20;5.65;;;;;;;-0.27;100.00;100738.00;4891308;28;20057;-58
2023/05/10 10:36:00;;;;;;;12.45;6.07;;;;;;;0.15;100.00;100808.78;4888344;28;20060;-58
2023/05/10 10:38:40;;;;;;;10.05;5.63;;;;;;;-0.17;100.00;100770.03;4887309;28;20039;-58
2023/05/10 10:41:28;;;;;;;9.83;5.90;;;;;;;-0.09;100.00;100804.56;4887524;28;20140;-58
2023/05/10 10:44:38;;;;;;;9.43;6.05;;;;;;;0.11;100.00;100828.38;4881478;28;20647;-58
2023/05/10 10:47:28;;;;;;;10.63;4.97;;;;;;;0.13;100.00;100831.00;4894753;28;20110;-58
2023/05/10 10:50:09;;;;;;;12.10;6.00;;;;;;;0.11;100.00;100822.38;4885876;28;20083;-58
2023/05/10 10:52:41;;;;;;;11.70;6.03;;;;;;;0.11;100.00;100827.50;4878874;28;20060;-58
2023/05/10 10:55:14;;;;;;;12.73;6.47;;;;;;;0.10;100.00;100830.88;4879891;28;20081;-59
2023/05/10 10:58:00;;;;;;;15.27;6.53;;;;;;;0.06;100.00;100834.19;4879806;28;20052;-58
2023/05/10 11:00:33;;;;;;;13.57;7.25;;;;;;;0.05;100.00;100833.31;4860425;28;21202;-58
2023/05/10 11:03:08;;;;;;;11.82;6.22;;;;;;;0.08;100.00;100837.69;4867355;28;20102;-58
2023/05/10 11:05:44;;;;;;;12.05;6.15;;;;;;;-0.15;100.00;100799.22;4872505;28;20048;-58
2023/05/10 11:08:21;;;;;;;11.70;6.63;;;;;;;0.10;100.00;100830.88;4866360;28;20395;-59
2023/05/10 11:10:55;;;;;;;13.82;7.10;;;;;;;-0.18;100.00;100799.06;4873273;28;20830;-59
2023/05/10 11:13:31;;;;;;;13.90;7.22;;;;;;;0.07;100.00;100836.78;4879145;28;20054;-58
2023/05/10 11:16:16;;;;;;;12.55;5.95;;;;;;;0.07;100.00;100830.78;4874002;28;20140;-58
2023/05/10 11:19:01;;;;;;;11.05;7.03;;;;;;;0.07;100.00;100841.06;4866390;28;20045;-57
2023/05/10 11:21:34;;;;;;;15.80;7.03;;;;;;;-0.03;100.00;100815.03;4870969;28;20046;-59
2023/05/10 11:24:15;;;;;;;12.02;6.78;;;;;;;0.05;100.00;100837.56;4877833;28;20049;-58
2023/05/10 11:26:47;;;;;;;15.63;7.47;;;;;;;0.05;100.00;100838.44;4868294;28;20072;-57
2023/05/10 11:29:19;;;;;;;14.07;7.03;;;;;;;-0.38;100.00;100766.69;4877821;28;20057;-57
2023/05/10 11:31:51;;;;;;;14.80;7.65;;;;;;;-0.39;100.00;100763.25;4876197;28;20496;-57
2023/05/10 11:34:33;;;;;;;11.50;6.25;;;;;;;-0.04;100.00;100828.72;4875534;28;20054;-58
2023/05/10 11:37:05;;;;;;;14.60;6.45;;;;;;;0.03;100.00;100839.22;4868154;28;20050;-58
2023/05/10 11:39:36;;;;;;;18.55;9.18;;;;;;;0.02;100.00;100837.44;4877124;28;20069;-57
2023/05/10 11:42:09;;;;;;;15.85;7.68;;;;;;;0.00;100.00;100840.00;4878186;28;20502;-57
2023/05/10 11:44:40;;;;;;;13.43;7.72;;;;;;;0.02;100.00;100847.72;4879157;28;20037;-57
2023/05/10 11:47:22;;;;;;;18.48;7.68;;;;;;;-0.14;100.00;100812.94;4892307;28;20069;-57
2023/05/10 11:49:56;;;;;;;11.40;7.10;;;;;;;0.02;100.00;100850.31;4870800;28;20084;-58
2023/05/10 11:52:31;;;;;;;12.60;6.30;;;;;;;-0.25;100.00;100807.38;4878158;28;20135;-57
2023/05/10 11:55:02;;;;;;;18.45;7.78;;;;;;;-0.04;100.00;100844.13;4876159;28;20504;-57
2023/05/10 11:57:38;;;;;;;15.30;6.78;;;;;;;-0.08;100.00;100842.25;4877200;28;20566;-56
2023/05/10 12:00:11;;;;;;;14.30;7.45;;;;;;;0.03;100.00;100849.50;4878120;28;20108;-57